createdAt,value
2023-01-25T00:02:20.391Z,96114.53
2023-01-25T00:05:25.716Z,96110.78
2023-01-25T00:08:28.701Z,96115.03
2023-01-25T00:11:34.504Z,96107.13
2023-01-25T00:14:37.462Z,96115.84
2023-01-25T00:17:42.551Z,96110.78
2023-01-25T00:20:45.571Z,96111.03
2023-01-25T00:23:48.650Z,96114.78
2023-01-25T00:26:53.108Z,96095.41
2023-01-25T00:29:56.325Z,96115.31
2023-01-25T00:33:10.228Z,96106.53
2023-01-25T00:36:36.422Z,96110.00
2023-01-25T00:39:39.822Z,96094.84
2023-01-25T00:42:44.224Z,96111.59
2023-01-25T00:45:49.093Z,96109.19
2023-01-25T00:48:55.586Z,96114.53
2023-01-25T00:51:59.408Z,96109.47
2023-01-25T00:55:02.407Z,96114.53
2023-01-25T00:58:06.758Z,96110.28
2023-01-25T01:01:10.209Z,96100.44
2023-01-25T01:04:13.583Z,96108.94
2023-01-25T01:07:17.064Z,96117.72
2023-01-25T01:10:20.276Z,96107.09
2023-01-25T01:13:24.678Z,96097.00
2023-01-25T01:16:28.301Z,96100.16
2023-01-25T01:19:31.895Z,96115.06
2023-01-25T01:22:36.665Z,96104.97
2023-01-25T01:25:39.680Z,96107.38
2023-01-25T01:28:44.644Z,96107.38
2023-01-25T01:31:47.811Z,96105.78
2023-01-25T01:34:50.916Z,96100.44
2023-01-25T01:37:55.990Z,96099.66
2023-01-25T01:40:58.997Z,96083.19
2023-01-25T01:44:03.433Z,96090.59
2023-01-25T01:47:08.404Z,96082.91
2023-01-25T01:50:22.147Z,96080.50
2023-01-25T01:53:27.301Z,96088.75
2023-01-25T01:56:36.177Z,96082.63
2023-01-25T01:59:45.745Z,96091.69
2023-01-25T02:02:51.116Z,96078.94
2023-01-25T02:06:03.959Z,96063.00
2023-01-25T02:09:07.176Z,96057.41
2023-01-25T02:12:14.181Z,96084.22
2023-01-25T02:15:18.639Z,96081.56
2023-01-25T02:18:21.721Z,96080.75
2023-01-25T02:21:25.589Z,96085.84
2023-01-25T02:24:33.828Z,96091.41
2023-01-25T02:27:42.598Z,96095.91
2023-01-25T02:30:46.450Z,96087.94
2023-01-25T02:33:49.468Z,96079.16
2023-01-25T02:36:52.523Z,96082.09
2023-01-25T02:39:55.717Z,96083.44
2023-01-25T02:43:01.786Z,96081.81
2023-01-25T02:46:15.918Z,96077.31
2023-01-25T02:49:19.495Z,96076.78
2023-01-25T02:52:22.538Z,96074.91
2023-01-25T02:55:25.614Z,96075.72
2023-01-25T02:58:30.089Z,96075.72
2023-01-25T03:01:33.893Z,96084.75
2023-01-25T03:04:36.947Z,96082.66
2023-01-25T03:07:39.967Z,96066.72
2023-01-25T03:10:43.041Z,96088.75
2023-01-25T03:13:47.534Z,96091.16
2023-01-25T03:16:50.623Z,96082.38
2023-01-25T03:19:54.098Z,96087.41
2023-01-25T03:22:58.943Z,96083.41
2023-01-25T03:26:12.830Z,96081.56
2023-01-25T03:29:17.448Z,96072.53
2023-01-25T03:32:20.524Z,96083.16
2023-01-25T03:35:23.639Z,96070.94
2023-01-25T03:38:27.215Z,96075.19
2023-01-25T03:41:30.218Z,96082.38
2023-01-25T03:44:34.754Z,96072.00
2023-01-25T03:47:37.734Z,96073.59
2023-01-25T03:50:40.745Z,96070.41
2023-01-25T03:53:43.782Z,96065.88
2023-01-25T03:56:46.746Z,96070.41
2023-01-25T03:59:51.219Z,96072.22
2023-01-25T04:02:56.297Z,96068.22
2023-01-25T04:06:02.658Z,96063.94
2023-01-25T04:09:06.999Z,96060.19
2023-01-25T04:12:09.995Z,96068.69
2023-01-25T04:15:14.519Z,96069.25
2023-01-25T04:18:20.439Z,96059.69
2023-01-25T04:21:25.563Z,96069.25
2023-01-25T04:24:28.599Z,96061.28
2023-01-25T04:27:31.651Z,96062.34
2023-01-25T04:30:36.090Z,96062.59
2023-01-25T04:33:39.211Z,96061.28
2023-01-25T04:36:44.315Z,96058.66
2023-01-25T04:39:47.442Z,96071.41
2023-01-25T04:42:50.521Z,96036.16
2023-01-25T04:45:57.619Z,96078.59
2023-01-25T04:49:00.698Z,96079.94
2023-01-25T04:52:06.122Z,96073.03
2023-01-25T04:55:10.260Z,96073.28
2023-01-25T04:58:15.703Z,96073.00
2023-01-25T05:01:21.507Z,96079.41
2023-01-25T05:04:24.488Z,96079.41
2023-01-25T05:07:27.551Z,96060.56
2023-01-25T05:10:32.711Z,96061.59
2023-01-25T05:13:35.788Z,96070.63
2023-01-25T05:16:40.296Z,96057.34
2023-01-25T05:19:43.372Z,96057.84
2023-01-25T05:22:46.438Z,96057.84
2023-01-25T05:26:06.808Z,96064.75
2023-01-25T05:29:13.235Z,96056.78
2023-01-25T05:32:19.226Z,96051.72
2023-01-25T05:35:22.302Z,96067.13
2023-01-25T05:38:25.364Z,96063.16
2023-01-25T05:41:28.458Z,96064.75
2023-01-25T05:44:31.481Z,96062.38
2023-01-25T05:47:35.954Z,96067.16
2023-01-25T05:50:38.923Z,96071.41
2023-01-25T05:53:44.544Z,96074.06
2023-01-25T05:56:50.050Z,96063.19
2023-01-25T05:59:53.165Z,96057.63
2023-01-25T06:03:01.185Z,96070.38
2023-01-25T06:06:07.112Z,96062.41
2023-01-25T06:09:12.433Z,96067.72
2023-01-25T06:12:16.245Z,96069.56
2023-01-25T06:15:19.196Z,96074.91
2023-01-25T06:18:24.607Z,96081.56
2023-01-25T06:21:27.673Z,96085.84
2023-01-25T06:24:30.759Z,96083.16
2023-01-25T06:27:36.637Z,96087.41
2023-01-25T06:30:45.323Z,96081.56
2023-01-25T06:33:52.046Z,96097.50
2023-01-25T06:36:57.170Z,96084.75
2023-01-25T06:40:00.284Z,96083.16
2023-01-25T06:43:07.909Z,96078.63
2023-01-25T06:46:12.766Z,96078.91
2023-01-25T06:49:24.330Z,96086.59
2023-01-25T06:52:29.121Z,96078.09
2023-01-25T06:55:32.203Z,96088.47
2023-01-25T06:58:38.388Z,96076.25
2023-01-25T07:01:41.447Z,96081.84
2023-01-25T07:04:47.859Z,96097.50
2023-01-25T07:07:50.848Z,96081.56
2023-01-25T07:10:58.137Z,96082.63
2023-01-25T07:14:01.553Z,96077.03
2023-01-25T07:17:04.644Z,96076.78
2023-01-25T07:20:10.596Z,96080.75
2023-01-25T07:23:13.609Z,96081.03
2023-01-25T07:26:18.932Z,96082.91
2023-01-25T07:29:22.077Z,96087.44
2023-01-25T07:32:25.201Z,96096.19
2023-01-25T07:35:29.556Z,96094.34
2023-01-25T07:38:32.700Z,96077.59
2023-01-25T07:41:35.748Z,96092.75
2023-01-25T07:44:41.134Z,96086.63
2023-01-25T07:47:44.219Z,96096.47
2023-01-25T07:51:12.451Z,96102.59
2023-01-25T07:54:15.631Z,96096.47
2023-01-25T07:57:18.557Z,96101.78
2023-01-25T08:00:23.938Z,96102.84
2023-01-25T08:03:27.838Z,96100.97
2023-01-25T08:06:35.889Z,96093.25
2023-01-25T08:09:41.676Z,96096.47
2023-01-25T08:12:47.005Z,96084.22
2023-01-25T08:15:54.867Z,96083.97
2023-01-25T08:19:00.243Z,96083.19
2023-01-25T08:22:07.408Z,96083.97
2023-01-25T08:25:12.986Z,96083.97
2023-01-25T08:28:15.963Z,96078.91
2023-01-25T08:31:21.299Z,96085.28
2023-01-25T08:34:24.383Z,96088.75
2023-01-25T08:37:29.877Z,96083.69
2023-01-25T08:40:34.622Z,96080.75
2023-01-25T08:43:40.397Z,96078.38
2023-01-25T08:46:43.537Z,96078.38
2023-01-25T08:49:46.629Z,96072.00
2023-01-25T08:52:55.054Z,96075.72
2023-01-25T08:55:58.246Z,96073.84
2023-01-25T08:59:01.284Z,96080.75
2023-01-25T09:02:05.410Z,96077.03
2023-01-25T09:05:09.153Z,96077.84
2023-01-25T09:08:13.662Z,96071.47
2023-01-25T09:11:18.702Z,96072.78
2023-01-25T09:14:21.824Z,96073.59
2023-01-25T09:17:24.954Z,96061.06
2023-01-25T09:20:29.444Z,96060.28
2023-01-25T09:23:50.539Z,96054.97
2023-01-25T09:26:59.615Z,96058.69
2023-01-25T09:30:04.335Z,96053.91
2023-01-25T09:33:07.544Z,96040.63
2023-01-25T09:36:11.514Z,96054.16
2023-01-25T09:39:18.723Z,96035.81
2023-01-25T09:42:35.609Z,96034.75
2023-01-25T09:45:38.897Z,96019.63
2023-01-25T09:48:56.497Z,96027.06
2023-01-25T09:52:33.274Z,96014.53
2023-01-25T09:55:40.718Z,96014.53
2023-01-25T09:58:47.236Z,96012.41
2023-01-25T10:01:54.613Z,96001.78
2023-01-25T10:05:03.947Z,95996.44
2023-01-25T10:08:15.875Z,95993.50
2023-01-25T10:11:24.506Z,95987.94
2023-01-25T10:14:27.884Z,95986.88
2023-01-25T10:17:36.970Z,95964.03
2023-01-25T10:20:49.514Z,95962.44
2023-01-25T10:24:17.889Z,95965.59
2023-01-25T10:27:30.820Z,95962.94
2023-01-25T10:30:40.153Z,95961.34
2023-01-25T10:33:48.135Z,95917.56
2023-01-25T10:36:55.327Z,95955.47
2023-01-25T10:40:05.654Z,95953.63
2023-01-25T10:43:16.749Z,95950.97
2023-01-25T10:46:25.236Z,95950.16
2023-01-25T10:49:37.991Z,95932.63
2023-01-25T10:52:41.057Z,95935.00
2023-01-25T10:55:57.105Z,95927.31
2023-01-25T10:59:16.790Z,95908.97
2023-01-25T11:02:37.798Z,95917.91
2023-01-25T11:05:45.710Z,95903.59
2023-01-25T11:08:48.850Z,95916.53
2023-01-25T11:11:56.492Z,95903.84
2023-01-25T11:15:27.515Z,95907.84
2023-01-25T11:18:33.895Z,95905.19
2023-01-25T11:21:36.991Z,95904.38
2023-01-25T11:24:39.981Z,95850.88
2023-01-25T11:27:43.157Z,95896.41
2023-01-25T11:30:48.504Z,95893.25
2023-01-25T11:33:51.762Z,95892.69
2023-01-25T11:37:25.692Z,95896.13
2023-01-25T11:40:38.644Z,95873.88
2023-01-25T11:44:08.257Z,95865.59
2023-01-25T11:47:28.693Z,95867.94
2023-01-25T11:50:39.100Z,95852.59
2023-01-25T11:54:03.983Z,95853.84
2023-01-25T11:57:22.902Z,95842.44
2023-01-25T12:00:42.982Z,95844.28
2023-01-25T12:04:13.247Z,95847.75
2023-01-25T12:07:24.147Z,95842.44
2023-01-25T12:10:37.944Z,95837.91
2023-01-25T12:13:47.567Z,95829.69
2023-01-25T12:17:05.289Z,95833.38
2023-01-25T12:20:37.032Z,95829.91
2023-01-25T12:24:03.284Z,95836.31
2023-01-25T12:27:15.634Z,95831.00
2023-01-25T12:30:27.193Z,95834.72
2023-01-25T12:33:39.679Z,95819.31
2023-01-25T12:36:47.218Z,95821.44
2023-01-25T12:39:53.663Z,95806.59
2023-01-25T12:43:01.557Z,95826.75
2023-01-25T12:46:14.480Z,95817.19
2023-01-25T12:49:26.872Z,95812.66
2023-01-25T12:52:38.694Z,95811.63
2023-01-25T12:55:41.953Z,95817.19
2023-01-25T12:58:52.153Z,95810.28
2023-01-25T13:01:59.647Z,95808.69
2023-01-25T13:05:15.940Z,95799.63
2023-01-25T13:08:36.284Z,95791.16
2023-01-25T13:11:41.666Z,95799.63
2023-01-25T13:14:44.884Z,95773.34
2023-01-25T13:17:47.999Z,95788.63
2023-01-25T13:20:53.398Z,95787.81
2023-01-25T13:24:20.486Z,95781.13
2023-01-25T13:27:28.355Z,95783.00
2023-01-25T13:30:34.385Z,95777.09
2023-01-25T13:33:45.516Z,95772.63
2023-01-25T13:36:48.774Z,95789.84
2023-01-25T13:39:55.040Z,95793.59
2023-01-25T13:43:03.874Z,95798.34
2023-01-25T13:46:09.944Z,95790.34
2023-01-25T13:49:23.843Z,95799.63
2023-01-25T13:52:31.153Z,95791.66
2023-01-25T13:55:42.738Z,95795.72
2023-01-25T13:58:48.155Z,95793.69
2023-01-25T14:01:52.657Z,95793.94
2023-01-25T14:04:59.522Z,95784.19
2023-01-25T14:08:02.608Z,95797.94
2023-01-25T14:11:07.531Z,95794.78
2023-01-25T14:14:20.759Z,95793.19
2023-01-25T14:17:25.117Z,95796.94
2023-01-25T14:20:28.259Z,95791.88
2023-01-25T14:23:32.729Z,95789.50
2023-01-25T14:26:40.781Z,95784.19
2023-01-25T14:29:49.794Z,95783.91
2023-01-25T14:32:55.164Z,95780.75
2023-01-25T14:36:23.098Z,95778.88
2023-01-25T14:39:34.219Z,95770.09
2023-01-25T14:42:38.712Z,95772.75
2023-01-25T14:45:41.812Z,95778.34
2023-01-25T14:48:46.958Z,95775.41
2023-01-25T14:51:57.323Z,95770.94
2023-01-25T14:55:01.775Z,95778.34
2023-01-25T14:58:08.556Z,95775.69
2023-01-25T15:01:26.094Z,95787.41
2023-01-25T15:04:29.381Z,95798.84
2023-01-25T15:07:43.074Z,95794.31
2023-01-25T15:10:53.467Z,95787.97
2023-01-25T15:14:05.965Z,95792.22
2023-01-25T15:17:43.197Z,95805.22
2023-01-25T15:20:51.718Z,95806.03
2023-01-25T15:23:58.422Z,95809.25
2023-01-25T15:27:03.441Z,95805.53
2023-01-25T15:30:13.638Z,95804.19
2023-01-25T15:33:21.229Z,95808.72
2023-01-25T15:36:24.406Z,95815.09
2023-01-25T15:39:31.151Z,95809.78
2023-01-25T15:42:36.237Z,95814.81
2023-01-25T15:45:41.476Z,95818.53
2023-01-25T15:48:46.719Z,95815.59
2023-01-25T15:51:49.710Z,95812.16
2023-01-25T15:55:01.510Z,95812.44
2023-01-25T15:58:06.362Z,95796.81
2023-01-25T16:01:11.144Z,95808.44
2023-01-25T16:04:16.532Z,95805.03
2023-01-25T16:07:25.144Z,95792.84
2023-01-25T16:10:28.146Z,95809.19
2023-01-25T16:13:33.591Z,95819.22
2023-01-25T16:16:50.278Z,95816.56
2023-01-25T16:19:53.267Z,95813.34
2023-01-25T16:22:58.026Z,95812.31
2023-01-25T16:26:01.044Z,95812.09
2023-01-25T16:29:04.162Z,95807.91
2023-01-25T16:32:08.814Z,95807.63
2023-01-25T16:35:12.088Z,95804.44
2023-01-25T16:38:15.103Z,95811.31
2023-01-25T16:41:18.954Z,95804.34
2023-01-25T16:44:22.025Z,95806.44
2023-01-25T16:47:27.861Z,95780.47
2023-01-25T16:50:31.044Z,95793.69
2023-01-25T16:53:34.057Z,95787.31
2023-01-25T16:56:38.292Z,95779.78
2023-01-25T16:59:43.727Z,95791.03
2023-01-25T17:02:58.627Z,95795.50
2023-01-25T17:06:02.272Z,95796.00
2023-01-25T17:09:21.451Z,95788.50
2023-01-25T17:12:25.403Z,95792.72
2023-01-25T17:15:28.493Z,95785.22
2023-01-25T17:18:34.483Z,95789.97
2023-01-25T17:21:39.319Z,95799.81
2023-01-25T17:24:44.184Z,95797.94
2023-01-25T17:27:47.285Z,95795.78
2023-01-25T17:30:53.465Z,95796.56
2023-01-25T17:34:02.109Z,95791.53
2023-01-25T17:37:05.152Z,95795.00
2023-01-25T17:40:10.436Z,95787.28
2023-01-25T17:43:13.759Z,95780.38
2023-01-25T17:46:24.240Z,95771.06
2023-01-25T17:49:30.534Z,95779.31
2023-01-25T17:52:33.580Z,95776.59
2023-01-25T17:55:41.041Z,95766.66
2023-01-25T17:58:44.107Z,95762.63
2023-01-25T18:01:47.179Z,95764.72
2023-01-25T18:04:51.526Z,95774.63
2023-01-25T18:07:55.877Z,95763.44
2023-01-25T18:11:02.331Z,95754.94
2023-01-25T18:14:09.090Z,95738.56
2023-01-25T18:17:12.268Z,95761.19
2023-01-25T18:20:17.642Z,95757.09
2023-01-25T18:23:20.737Z,95736.88
2023-01-25T18:26:25.558Z,95746.09
2023-01-25T18:29:45.747Z,95742.47
2023-01-25T18:32:48.790Z,95727.72
2023-01-25T18:35:55.253Z,95740.84
2023-01-25T18:39:07.052Z,95749.94
2023-01-25T18:42:10.286Z,95742.75
2023-01-25T18:45:16.315Z,95748.69
2023-01-25T18:48:21.208Z,95763.78
2023-01-25T18:51:26.356Z,95756.16
2023-01-25T18:54:29.505Z,95758.16
2023-01-25T18:57:33.736Z,95768.78
2023-01-25T19:00:36.920Z,95760.41
2023-01-25T19:03:41.921Z,95761.78
2023-01-25T19:06:46.328Z,95763.03
2023-01-25T19:09:49.455Z,95759.09
2023-01-25T19:12:52.534Z,95744.50
2023-01-25T19:16:03.264Z,95750.81
2023-01-25T19:19:06.353Z,95731.78
2023-01-25T19:22:11.553Z,95742.97
2023-01-25T19:25:20.279Z,95751.69
2023-01-25T19:28:25.494Z,95736.78
2023-01-25T19:31:32.883Z,95744.13
2023-01-25T19:34:36.166Z,95732.94
2023-01-25T19:37:41.586Z,95730.19
2023-01-25T19:40:46.625Z,95718.47
2023-01-25T19:43:56.219Z,95725.41
2023-01-25T19:47:00.236Z,95723.25
2023-01-25T19:50:03.748Z,95729.06
2023-01-25T19:53:08.319Z,95710.16
2023-01-25T19:56:11.525Z,95714.03
2023-01-25T19:59:16.805Z,95713.78
2023-01-25T20:02:21.240Z,95701.28
2023-01-25T20:05:24.282Z,95704.41
2023-01-25T20:08:31.373Z,95700.25
2023-01-25T20:11:36.157Z,95694.91
2023-01-25T20:14:39.286Z,95706.56
2023-01-25T20:17:44.299Z,95698.16
2023-01-25T20:20:56.009Z,95693.97
2023-01-25T20:24:04.739Z,95688.19
2023-01-25T20:27:07.840Z,95694.72
2023-01-25T20:30:11.928Z,95694.09
2023-01-25T20:33:16.658Z,95693.09
2023-01-25T20:36:20.263Z,95700.78
2023-01-25T20:39:26.965Z,95695.22
2023-01-25T20:42:32.861Z,95689.84
2023-01-25T20:45:38.323Z,95686.00
2023-01-25T20:48:41.382Z,95671.44
2023-01-25T20:51:46.577Z,95681.91
2023-01-25T20:54:53.456Z,95673.28
2023-01-25T20:57:56.558Z,95667.78
2023-01-25T21:00:59.607Z,95670.34
2023-01-25T21:04:02.632Z,95666.53
2023-01-25T21:07:07.011Z,95666.44
2023-01-25T21:10:15.641Z,95666.50
2023-01-25T21:13:19.272Z,95655.41
2023-01-25T21:16:23.999Z,95651.50
2023-01-25T21:19:27.689Z,95663.34
2023-01-25T21:22:32.671Z,95654.16
2023-01-25T21:25:39.685Z,95646.16
2023-01-25T21:28:43.089Z,95645.66
2023-01-25T21:31:46.209Z,95637.25
2023-01-25T21:34:51.116Z,95635.97
2023-01-25T21:37:54.124Z,95645.88
2023-01-25T21:41:02.730Z,95646.97
2023-01-25T21:44:23.542Z,95641.72
2023-01-25T21:47:31.032Z,95639.34
2023-01-25T21:50:54.247Z,95596.78
2023-01-25T21:53:57.308Z,95640.94
2023-01-25T21:57:03.602Z,95628.47
2023-01-25T22:00:11.014Z,95634.66
2023-01-25T22:03:14.295Z,95620.03
2023-01-25T22:06:17.953Z,95586.94
2023-01-25T22:09:21.386Z,95598.38
2023-01-25T22:12:25.829Z,95604.44
2023-01-25T22:15:31.750Z,95597.31
2023-01-25T22:18:36.754Z,95601.47
2023-01-25T22:21:39.764Z,95599.13
2023-01-25T22:24:42.842Z,95601.56
2023-01-25T22:27:54.243Z,95590.91
2023-01-25T22:30:57.446Z,95594.66
2023-01-25T22:34:00.838Z,95593.63
2023-01-25T22:37:03.805Z,95593.63
2023-01-25T22:40:09.267Z,95575.00
2023-01-25T22:43:13.889Z,95553.19
2023-01-25T22:46:18.814Z,95564.41
2023-01-25T22:49:21.918Z,95553.56
2023-01-25T22:52:24.949Z,95555.13
2023-01-25T22:55:27.966Z,95557.50
2023-01-25T22:58:33.995Z,95547.44
2023-01-25T23:01:45.066Z,95532.84
2023-01-25T23:04:48.247Z,95535.50
2023-01-25T23:07:51.341Z,95545.06
2023-01-25T23:10:54.516Z,95531.28
2023-01-25T23:14:16.855Z,95522.53
2023-01-25T23:17:38.212Z,95531.53
2023-01-25T23:20:43.438Z,95525.41
2023-01-25T23:23:46.642Z,95525.72
2023-01-25T23:26:49.711Z,95516.72
2023-01-25T23:29:54.202Z,95516.44
2023-01-25T23:32:57.287Z,95528.44
2023-01-25T23:36:10.171Z,95523.91
2023-01-25T23:39:13.251Z,95504.09
2023-01-25T23:42:16.332Z,95513.84
2023-01-25T23:45:20.784Z,95499.50
2023-01-25T23:48:33.809Z,95496.31
2023-01-25T23:51:36.805Z,95478.06
2023-01-25T23:54:39.885Z,95497.88
2023-01-25T23:57:42.910Z,95486.72
